Smoke Signal, Arizona
Current Conditions -  °F | °C
As of 5:53 PM on Friday 24 Oct 2014 (Local Time) from KRQE Reporting Station
Clear Clear  
Wind Chill: 73°   Ceiling: Unl
Heat Index: 73°   Visibility: 10mi
Dew Point: 27°   Wind: 8mph
Humidity: 18%   Direction: 60°ENE
Pressure: 30.31"   Gusts: NA
Location:  36.1012°N, 109.584°W
Report Text: KRQE 242353Z AUTO 06007KT 10SM CLR 23/M03 A3031 RMK AO2 SLP188 T02281028 10261 20211 58004 TSNO
Loading
Personal Weather Stations






























Interactive Weather Map
Tropical Storm Tracking
New forecast layout! Learn more

10-Day Weather Forecast

Advertisements
Track Severe Weather on mobile